Time;durP1;ratioP1;P1;durP2;ratioP2;P2;SDS_P1;SDS_P2;PMS_P1;PMS_P2;Temp;Humidity;BMP_temperature;BMP_pressure;BME280_temperature;BME280_humidity;BME280_pressure;Samples;Min_cycle;Max_cycle;Signal;HPM_P1;HPM_P2
2022/10/11 00:01:34;;;;;;;19.03;8.43;;;;;;;8.76;98.73;101018.09;5102278;28;20482;-72
2022/10/11 00:04:01;;;;;;;29.40;9.77;;;;;;;8.74;98.25;101022.69;5102549;28;20457;-72
2022/10/11 00:06:29;;;;;;;18.20;8.07;;;;;;;8.69;98.48;101031.00;5101484;28;20498;-72
2022/10/11 00:08:56;;;;;;;17.20;9.10;;;;;;;8.63;98.20;101026.13;5103063;28;20427;-72
2022/10/11 00:11:23;;;;;;;14.90;8.80;;;;;;;8.62;98.66;101032.41;5102277;28;20471;-72
2022/10/11 00:13:49;;;;;;;15.80;8.57;;;;;;;8.54;98.64;101030.31;5102696;28;20444;-72
2022/10/11 00:16:16;;;;;;;19.07;8.23;;;;;;;8.66;98.91;101033.88;5102063;28;20479;-71
2022/10/11 00:18:43;;;;;;;18.97;8.53;;;;;;;8.60;98.92;101029.84;5101861;28;20443;-72
2022/10/11 00:21:11;;;;;;;17.57;8.73;;;;;;;8.62;99.05;101030.59;5101895;28;20577;-71
2022/10/11 00:23:40;;;;;;;24.13;9.63;;;;;;;8.59;98.88;101038.81;5101304;28;20486;-72
2022/10/11 00:26:09;;;;;;;29.67;9.00;;;;;;;8.55;98.88;101032.00;5101841;28;21072;-72
2022/10/11 00:28:36;;;;;;;14.60;7.70;;;;;;;8.57;98.97;101040.72;5101755;28;20431;-72
2022/10/11 00:31:07;;;;;;;22.00;7.97;;;;;;;8.50;99.00;101039.47;5101809;28;20468;-72
2022/10/11 00:33:33;;;;;;;16.40;7.87;;;;;;;8.49;98.86;101045.78;5102089;28;20428;-72
2022/10/11 00:36:00;;;;;;;13.00;8.27;;;;;;;8.50;98.89;101046.59;5101955;28;20478;-71
2022/10/11 00:38:27;;;;;;;16.20;7.37;;;;;;;8.37;98.48;101042.09;5101819;28;20466;-72
2022/10/11 00:40:55;;;;;;;18.10;8.77;;;;;;;8.37;98.67;101050.09;5101479;28;20992;-72
2022/10/11 00:43:24;;;;;;;11.80;6.80;;;;;;;8.35;98.42;101051.16;5102232;28;20427;-72
2022/10/11 00:46:05;;;;;;;17.87;7.73;;;;;;;8.33;98.29;101059.25;5100842;28;20479;-72
2022/10/11 00:48:36;;;;;;;25.20;8.13;;;;;;;8.32;98.40;101057.56;5101630;28;20454;-72
2022/10/11 00:51:08;;;;;;;18.43;8.27;;;;;;;8.36;98.44;101058.19;5101181;28;21417;-72
2022/10/11 00:53:34;;;;;;;14.70;7.73;;;;;;;8.42;98.20;101057.75;5101418;28;20460;-72
2022/10/11 00:56:08;;;;;;;17.77;6.60;;;;;;;8.33;98.10;101059.25;5101187;28;20479;-72
2022/10/11 00:58:36;;;;;;;14.97;6.53;;;;;;;8.32;98.09;101059.38;5101990;28;20440;-72
2022/10/11 01:01:02;;;;;;;12.43;6.47;;;;;;;8.25;97.78;101061.63;5100912;28;20482;-72
2022/10/11 01:03:32;;;;;;;12.33;7.43;;;;;;;8.23;97.62;101066.19;5101858;28;20443;-72
2022/10/11 01:06:00;;;;;;;19.07;6.80;;;;;;;8.24;97.59;101067.88;5101157;28;20483;-72
2022/10/11 01:08:27;;;;;;;17.00;7.80;;;;;;;8.14;97.68;101064.16;5101101;28;20451;-72
2022/10/11 01:10:54;;;;;;;13.97;7.43;;;;;;;8.10;97.89;101068.81;5100866;28;20486;-72
2022/10/11 01:13:29;;;;;;;16.93;7.13;;;;;;;8.13;97.79;101063.28;5102016;28;20435;-72
2022/10/11 01:15:59;;;;;;;13.10;7.10;;;;;;;8.10;97.51;101072.34;5100951;28;20471;-72
2022/10/11 01:18:31;;;;;;;17.33;7.20;;;;;;;8.01;97.60;101067.66;5100586;28;20424;-72
2022/10/11 01:21:02;;;;;;;23.00;7.50;;;;;;;8.02;97.37;101068.47;5100900;28;20516;-72
2022/10/11 01:23:51;;;;;;;16.00;7.20;;;;;;;7.96;97.53;101075.09;5100980;28;20451;-72
2022/10/11 01:26:50;;;;;;;16.63;7.80;;;;;;;7.97;97.52;101071.47;5100837;28;20483;-72
2022/10/11 01:29:26;;;;;;;22.43;8.30;;;;;;;7.98;97.88;101078.50;5100716;28;20848;-72
2022/10/11 01:31:57;;;;;;;14.27;7.30;;;;;;;7.98;97.86;101080.31;5100731;28;20509;-73
2022/10/11 01:34:28;;;;;;;19.93;7.83;;;;;;;7.92;97.51;101085.09;5101329;28;20455;-73
2022/10/11 01:37:01;;;;;;;14.00;7.50;;;;;;;7.91;97.81;101077.22;5099795;28;20483;-73
2022/10/11 01:39:32;;;;;;;16.63;7.40;;;;;;;7.80;97.36;101077.09;5101221;28;20431;-73
2022/10/11 01:42:01;;;;;;;15.57;7.10;;;;;;;7.76;97.31;101079.09;5100657;28;20498;-73
2022/10/11 01:44:29;;;;;;;15.73;6.93;;;;;;;7.73;97.18;101076.63;5101283;28;20447;-73
2022/10/11 01:46:57;;;;;;;11.80;7.70;;;;;;;7.73;97.65;101088.13;5100268;28;20498;-73
2022/10/11 01:49:23;;;;;;;16.67;7.57;;;;;;;7.83;97.68;101083.06;5100766;28;20427;-73
2022/10/11 01:51:53;;;;;;;15.60;8.00;;;;;;;7.89;97.44;101085.28;5099741;28;20471;-73
2022/10/11 01:54:44;;;;;;;17.13;7.03;;;;;;;7.91;97.70;101087.84;5101097;28;20459;-73
2022/10/11 01:57:34;;;;;;;12.70;6.43;;;;;;;7.71;97.77;101089.19;5095551;28;20471;-73
2022/10/11 02:00:06;;;;;;;22.20;8.70;;;;;;;7.89;98.20;101090.63;5101011;28;20432;-73
2022/10/11 02:02:49;;;;;;;18.13;7.43;;;;;;;8.01;97.97;101088.09;5100178;28;20471;-73
2022/10/11 02:05:21;;;;;;;11.33;7.00;;;;;;;7.91;97.50;101094.03;5099604;28;20501;-73
2022/10/11 02:07:51;;;;;;;18.07;7.17;;;;;;;7.84;97.40;101091.88;5100399;28;20508;-73
2022/10/11 02:10:23;;;;;;;15.10;7.07;;;;;;;7.73;97.57;101097.94;5100387;28;20479;-73
2022/10/11 02:12:54;;;;;;;15.10;7.57;;;;;;;7.67;97.84;101100.97;5100963;28;20451;-73
2022/10/11 02:15:21;;;;;;;19.60;9.03;;;;;;;7.77;98.01;101090.59;5099866;28;20455;-73
2022/10/11 02:17:55;;;;;;;17.80;7.50;;;;;;;7.89;97.86;101095.09;5100624;28;20457;-73
2022/10/11 02:20:25;;;;;;;23.87;8.47;;;;;;;7.75;97.48;101092.50;5100271;28;20443;-73
2022/10/11 02:22:57;;;;;;;13.13;6.93;;;;;;;7.70;97.73;101092.81;5099964;28;20512;-73
2022/10/11 02:25:26;;;;;;;16.10;7.30;;;;;;;7.60;97.68;101089.88;5099908;28;20491;-73
2022/10/11 02:27:55;;;;;;;15.33;6.80;;;;;;;7.52;97.98;101098.38;5100796;28;20457;-73
2022/10/11 02:30:22;;;;;;;14.27;8.23;;;;;;;7.47;97.88;101092.50;5100174;28;20474;-73
2022/10/11 02:32:51;;;;;;;13.70;7.60;;;;;;;7.40;97.46;101096.53;5100389;28;20460;-73
2022/10/11 02:35:19;;;;;;;14.57;6.77;;;;;;;7.34;97.60;101099.56;5099943;28;20481;-73
2022/10/11 02:37:51;;;;;;;22.73;6.63;;;;;;;7.32;97.40;101096.16;5100013;28;21085;-73
2022/10/11 02:40:21;;;;;;;18.53;6.50;;;;;;;7.29;97.57;101099.00;5100267;28;20431;-73
2022/10/11 02:42:51;;;;;;;19.97;7.93;;;;;;;7.27;97.39;101101.75;5100099;28;20489;-73
2022/10/11 02:45:20;;;;;;;14.73;7.57;;;;;;;7.27;97.45;101107.06;5099806;28;20447;-73
2022/10/11 02:47:48;;;;;;;17.87;6.93;;;;;;;7.25;97.81;101102.81;5100799;28;20438;-73
2022/10/11 02:50:16;;;;;;;17.73;6.60;;;;;;;7.23;97.91;101102.91;5099366;28;20452;-73
2022/10/11 02:52:43;;;;;;;17.67;6.70;;;;;;;7.25;97.89;101105.47;5103015;28;20455;-73
2022/10/11 02:55:11;;;;;;;14.60;7.07;;;;;;;7.21;97.49;101109.31;5103911;28;20461;-73
2022/10/11 02:57:38;;;;;;;23.47;7.97;;;;;;;7.19;97.43;101105.84;5104482;28;20472;-73
2022/10/11 03:00:06;;;;;;;18.27;6.30;;;;;;;7.06;97.54;101101.31;5104161;28;20440;-73
2022/10/11 03:02:33;;;;;;;17.73;6.80;;;;;;;7.11;97.27;101114.34;5103825;28;20505;-73
2022/10/11 03:05:00;;;;;;;14.17;7.10;;;;;;;7.10;97.31;101118.81;5103740;28;20467;-73
2022/10/11 03:07:28;;;;;;;15.73;7.17;;;;;;;7.08;97.33;101115.41;5102776;28;20490;-73
2022/10/11 03:09:54;;;;;;;14.30;7.23;;;;;;;7.15;97.38;101121.16;5104299;28;20475;-73
2022/10/11 03:12:21;;;;;;;13.50;7.70;;;;;;;7.15;97.38;101123.81;5103649;28;20478;-73
2022/10/11 03:14:48;;;;;;;15.50;8.60;;;;;;;7.14;97.24;101117.66;5103510;28;20447;-73
2022/10/11 03:17:15;;;;;;;13.27;7.50;;;;;;;7.10;97.35;101126.78;5103542;28;20480;-73
2022/10/11 03:19:41;;;;;;;17.07;7.97;;;;;;;7.06;97.41;101127.06;5102798;28;20980;-73
2022/10/11 03:22:08;;;;;;;20.10;7.40;;;;;;;6.99;97.10;101126.59;5102688;28;20479;-73
2022/10/11 03:24:36;;;;;;;15.97;7.57;;;;;;;6.97;96.95;101131.16;5103118;28;20949;-73
2022/10/11 03:27:03;;;;;;;16.20;7.47;;;;;;;6.93;96.69;101134.97;5103019;28;20548;-73
2022/10/11 03:29:30;;;;;;;14.67;8.00;;;;;;;6.91;96.56;101132.41;5103678;28;20497;-73
2022/10/11 03:31:57;;;;;;;18.30;8.40;;;;;;;6.89;96.79;101136.97;5102700;28;20471;-73
2022/10/11 03:34:24;;;;;;;16.77;8.43;;;;;;;6.92;96.63;101152.69;5103031;28;20981;-73
2022/10/11 03:36:51;;;;;;;17.37;8.53;;;;;;;6.92;96.62;101147.38;5102178;28;20532;-73
2022/10/11 03:39:18;;;;;;;11.07;7.20;;;;;;;6.94;96.59;101155.28;5103457;28;21244;-73
2022/10/11 03:41:46;;;;;;;16.30;6.93;;;;;;;6.90;96.79;101151.94;5102577;28;20479;-73
2022/10/11 03:44:13;;;;;;;16.67;7.40;;;;;;;6.88;96.66;101159.16;5103173;28;20451;-73
2022/10/11 03:46:39;;;;;;;14.13;7.77;;;;;;;6.86;96.54;101158.41;5102791;28;20513;-73
2022/10/11 03:49:06;;;;;;;19.90;7.80;;;;;;;6.83;96.85;101161.25;5103003;28;20436;-73
2022/10/11 03:51:33;;;;;;;13.07;6.50;;;;;;;6.81;96.63;101170.28;5102113;28;20496;-73
2022/10/11 03:54:00;;;;;;;15.17;7.67;;;;;;;6.84;96.57;101170.06;5102797;28;20550;-73
2022/10/11 03:56:26;;;;;;;17.30;6.97;;;;;;;6.85;96.66;101172.63;5102607;28;20471;-73
2022/10/11 03:58:54;;;;;;;14.57;7.80;;;;;;;6.83;96.54;101187.84;5103336;28;20431;-73
2022/10/11 04:01:21;;;;;;;13.43;6.97;;;;;;;6.83;96.42;101182.50;5101863;28;20540;-73
2022/10/11 04:03:48;;;;;;;13.80;7.20;;;;;;;6.76;96.46;101179.38;5103151;28;20450;-73
2022/10/11 04:06:15;;;;;;;13.20;7.27;;;;;;;6.75;96.28;101192.75;5102367;28;20479;-73
2022/10/11 04:08:41;;;;;;;15.50;7.50;;;;;;;6.72;96.42;101183.19;5102680;28;20467;-73
2022/10/11 04:11:08;;;;;;;20.60;7.33;;;;;;;6.69;96.53;101187.81;5062042;28;20480;-73
2022/10/11 04:13:35;;;;;;;14.90;7.77;;;;;;;6.67;96.58;101195.88;5062774;28;20449;-73
2022/10/11 04:16:03;;;;;;;12.43;6.93;;;;;;;6.65;96.36;101194.25;5061635;28;20555;-73
2022/10/11 04:18:30;;;;;;;11.60;7.20;;;;;;;6.72;96.41;101199.13;5061891;28;20433;-73
2022/10/11 04:20:57;;;;;;;15.37;7.73;;;;;;;6.69;96.19;101190.47;5061670;28;20473;-74
2022/10/11 04:23:24;;;;;;;12.07;6.80;;;;;;;6.67;96.30;101192.38;5061939;28;20453;-74
2022/10/11 04:25:50;;;;;;;16.13;8.93;;;;;;;6.63;96.13;101194.38;5061435;28;20476;-73
2022/10/11 04:28:17;;;;;;;20.10;9.03;;;;;;;6.55;96.06;101201.94;5062102;28;20429;-73
2022/10/11 04:30:44;;;;;;;21.43;8.70;;;;;;;6.49;96.04;101191.66;5061749;28;20477;-72
2022/10/11 04:33:12;;;;;;;19.53;8.60;;;;;;;6.44;95.83;101194.59;5062036;28;20530;-72
2022/10/11 04:35:39;;;;;;;19.33;7.87;;;;;;;6.40;95.46;101203.69;5061610;28;20481;-73
2022/10/11 04:38:06;;;;;;;13.70;8.13;;;;;;;6.38;95.50;101205.56;5061091;28;20506;-73
2022/10/11 04:40:32;;;;;;;15.70;9.13;;;;;;;6.43;95.62;101203.50;5061683;28;20468;-73
2022/10/11 04:43:00;;;;;;;15.07;9.03;;;;;;;6.39;95.67;101216.13;5061785;28;20453;-73
2022/10/11 04:45:27;;;;;;;11.90;7.97;;;;;;;6.43;95.44;101207.97;5061200;28;20523;-73
2022/10/11 04:47:53;;;;;;;19.67;7.50;;;;;;;6.43;95.23;101214.13;5061524;28;20507;-73
2022/10/11 04:50:21;;;;;;;11.70;7.30;;;;;;;6.34;95.48;101217.34;5060817;28;20498;-73
2022/10/11 04:52:48;;;;;;;15.83;8.47;;;;;;;6.25;95.51;101210.75;5061352;28;20453;-72
2022/10/11 04:55:15;;;;;;;12.73;7.17;;;;;;;6.21;95.27;101220.72;5061508;28;20573;-74
2022/10/11 04:57:42;;;;;;;12.30;7.50;;;;;;;6.16;95.57;101220.13;5061557;28;20425;-74
2022/10/11 05:00:10;;;;;;;12.87;7.30;;;;;;;6.13;95.15;101222.09;5060908;28;20942;-74
2022/10/11 05:02:37;;;;;;;12.37;7.70;;;;;;;6.09;95.35;101218.72;5061425;28;20461;-74
2022/10/11 05:05:04;;;;;;;11.87;7.47;;;;;;;6.11;95.41;101224.84;5061573;28;20446;-73
2022/10/11 05:07:32;;;;;;;12.43;7.50;;;;;;;6.09;95.24;101223.19;5060165;28;20489;-74
2022/10/11 05:09:59;;;;;;;12.70;6.60;;;;;;;6.11;95.06;101221.31;5082871;28;20483;-74
2022/10/11 05:12:26;;;;;;;14.03;7.03;;;;;;;6.03;95.04;101227.06;5101144;28;21033;-73
2022/10/11 05:14:52;;;;;;;8.73;6.30;;;;;;;6.06;95.20;101224.25;5100748;28;20969;-73
2022/10/11 05:17:19;;;;;;;15.00;6.37;;;;;;;6.02;94.87;101236.84;5097339;28;20468;-74
2022/10/11 05:19:46;;;;;;;11.67;6.73;;;;;;;6.02;94.84;101235.94;5100905;28;20481;-74
2022/10/11 05:22:13;;;;;;;13.03;7.60;;;;;;;5.88;94.97;101231.38;5099823;28;20475;-73
2022/10/11 05:24:41;;;;;;;14.50;7.07;;;;;;;5.85;95.08;101237.75;5101582;28;20462;-74
2022/10/11 05:27:08;;;;;;;17.87;7.30;;;;;;;5.87;95.32;101236.78;5098049;28;20482;-74
2022/10/11 05:29:35;;;;;;;12.23;7.03;;;;;;;5.90;95.42;101248.09;5100950;28;20432;-74
2022/10/11 05:32:02;;;;;;;13.13;7.87;;;;;;;5.93;95.22;101239.09;5100273;28;20479;-74
2022/10/11 05:34:29;;;;;;;10.73;7.20;;;;;;;5.92;95.06;101246.22;5101960;28;20456;-74
2022/10/11 05:36:56;;;;;;;11.77;6.93;;;;;;;5.93;95.26;101250.56;5100573;28;20479;-74
2022/10/11 05:39:23;;;;;;;13.03;7.53;;;;;;;5.92;94.96;101251.53;5101538;28;20455;-74
2022/10/11 05:41:51;;;;;;;8.87;6.60;;;;;;;5.93;94.66;101258.53;5100242;28;20467;-74
2022/10/11 05:44:18;;;;;;;12.93;7.50;;;;;;;5.96;94.71;101257.56;5101766;28;20448;-74
2022/10/11 05:46:45;;;;;;;14.80;6.90;;;;;;;5.96;94.80;101261.06;5101209;28;20497;-74
2022/10/11 05:49:12;;;;;;;15.20;6.80;;;;;;;5.96;94.85;101263.72;5101306;28;20436;-73
2022/10/11 05:51:39;;;;;;;15.57;7.33;;;;;;;5.99;94.79;101262.69;5098858;28;20491;-74
2022/10/11 05:54:06;;;;;;;11.23;7.53;;;;;;;6.09;94.69;101257.69;5099925;28;20456;-74
2022/10/11 05:56:32;;;;;;;14.33;7.50;;;;;;;6.15;94.87;101268.84;5099385;28;21221;-74
2022/10/11 05:59:00;;;;;;;14.27;7.67;;;;;;;6.22;94.58;101272.84;5101005;28;20440;-74
2022/10/11 06:01:27;;;;;;;14.87;7.57;;;;;;;6.32;94.43;101270.53;5099693;28;20471;-74
2022/10/11 06:03:54;;;;;;;17.27;8.10;;;;;;;6.39;94.01;101263.06;5100949;28;20469;-73
2022/10/11 06:06:21;;;;;;;15.17;8.03;;;;;;;6.44;93.92;101266.31;5099728;28;20576;-74
2022/10/11 06:08:48;;;;;;;10.07;6.63;;;;;;;6.57;94.03;101269.97;5100428;28;21005;-74
2022/10/11 06:11:17;;;;;;;15.93;8.27;;;;;;;6.74;93.73;101278.75;5100091;28;20475;-74
2022/10/11 06:13:44;;;;;;;16.50;8.40;;;;;;;6.97;92.96;101275.56;5100675;28;20451;-74
2022/10/11 06:16:13;;;;;;;17.80;7.90;;;;;;;7.57;91.74;101287.03;5099554;28;20977;-74
2022/10/11 06:18:40;;;;;;;16.03;8.73;;;;;;;7.91;88.58;101284.88;5099686;28;20471;-74
2022/10/11 06:21:06;;;;;;;17.00;9.53;;;;;;;8.19;87.67;101293.75;5100018;28;20980;-74
2022/10/11 06:23:33;;;;;;;15.40;9.40;;;;;;;8.44;83.20;101287.72;5100069;28;20456;-74
2022/10/11 06:26:01;;;;;;;15.57;8.60;;;;;;;9.09;80.73;101281.56;5100741;28;20497;-74
2022/10/11 06:28:29;;;;;;;11.10;7.00;;;;;;;9.30;77.32;101287.22;5104910;28;20479;-74
2022/10/11 06:30:56;;;;;;;14.20;7.57;;;;;;;9.08;77.77;101293.22;5103592;28;20459;-74
2022/10/11 06:33:25;;;;;;;11.40;7.40;;;;;;;8.86;77.68;101291.16;5103152;28;20467;-74
2022/10/11 06:35:57;;;;;;;9.77;6.60;;;;;;;8.73;79.73;101301.78;5102104;28;20471;-74
2022/10/11 06:38:24;;;;;;;11.23;5.30;;;;;;;8.46;80.63;101310.66;5099802;28;20687;-74
2022/10/11 06:40:50;;;;;;;9.33;5.90;;;;;;;9.28;78.65;101302.50;5102533;28;20531;-72
2022/10/11 06:43:17;;;;;;;6.00;4.40;;;;;;;9.20;79.17;101308.38;5103124;28;20467;-71
2022/10/11 06:45:44;;;;;;;5.57;5.07;;;;;;;9.81;78.72;101310.38;5100930;28;20929;-73
2022/10/11 06:48:11;;;;;;;7.17;4.30;;;;;;;10.36;75.23;101313.53;5102991;28;20525;-73
2022/10/11 06:50:39;;;;;;;6.97;4.37;;;;;;;10.39;73.85;101321.34;5103301;28;20490;-73
2022/10/11 06:53:06;;;;;;;5.43;4.20;;;;;;;10.98;71.45;101319.66;5100238;28;20454;-73
2022/10/11 06:55:33;;;;;;;5.00;3.97;;;;;;;10.83;70.60;101317.19;5102324;28;20467;-73
2022/10/11 06:58:00;;;;;;;3.37;3.07;;;;;;;9.88;73.27;101319.66;5103616;28;20427;-73
2022/10/11 07:00:27;;;;;;;6.33;3.77;;;;;;;9.75;75.31;101326.81;5102429;28;20471;-73
2022/10/11 07:02:54;;;;;;;4.80;4.30;;;;;;;9.38;77.76;101332.91;5103616;28;20467;-73
2022/10/11 07:05:21;;;;;;;5.23;3.57;;;;;;;9.58;78.64;101339.56;5102790;28;20451;-72
2022/10/11 07:07:49;;;;;;;5.27;3.20;;;;;;;10.49;75.92;101337.56;5101671;28;20519;-73
2022/10/11 07:10:16;;;;;;;4.93;3.93;;;;;;;10.85;73.00;101336.63;5102842;28;20509;-73
2022/10/11 07:12:44;;;;;;;6.30;4.50;;;;;;;11.22;72.00;101341.00;5103390;28;20518;-73
2022/10/11 07:15:11;;;;;;;15.37;4.37;;;;;;;11.82;69.77;101350.59;5102025;28;20455;-74
2022/10/11 07:17:38;;;;;;;6.53;4.63;;;;;;;12.02;68.91;101354.38;5089145;28;20440;-73
2022/10/11 07:20:07;;;;;;;5.33;4.13;;;;;;;12.40;67.66;101354.94;5103002;28;20440;-73
2022/10/11 07:22:33;;;;;;;5.90;4.10;;;;;;;12.98;66.71;101358.16;5101624;28;20479;-72
2022/10/11 07:25:02;;;;;;;12.00;7.07;;;;;;;14.84;63.52;101364.34;5103613;28;20451;-69
2022/10/11 07:27:28;;;;;;;8.23;6.17;;;;;;;16.77;56.30;101365.72;5102559;28;20487;-69
2022/10/11 07:29:55;;;;;;;9.93;6.50;;;;;;;18.14;51.11;101354.38;5102407;28;20510;-69
2022/10/11 07:32:22;;;;;;;7.80;6.00;;;;;;;17.56;51.23;101355.06;5101413;28;20486;-69
2022/10/11 07:34:49;;;;;;;6.63;5.60;;;;;;;17.72;50.46;101357.84;5103138;28;20816;-69
2022/10/11 07:37:15;;;;;;;9.57;6.57;;;;;;;18.56;49.31;101364.31;5100174;28;20479;-69
2022/10/11 07:39:42;;;;;;;9.37;7.27;;;;;;;18.59;48.50;101361.28;5102978;28;20421;-69
2022/10/11 07:42:10;;;;;;;7.67;5.80;;;;;;;19.06;48.29;101370.69;5102051;28;20484;-68
2022/10/11 07:44:37;;;;;;;8.60;6.00;;;;;;;16.99;52.87;101363.56;5102207;28;21117;-68
2022/10/11 07:47:04;;;;;;;8.77;6.60;;;;;;;19.10;47.59;101363.91;5102970;28;20477;-69
2022/10/11 07:49:31;;;;;;;8.73;5.33;;;;;;;19.57;46.34;101365.03;5102366;28;20430;-69
2022/10/11 07:51:58;;;;;;;8.53;5.40;;;;;;;20.23;44.46;101364.88;5100786;28;20477;-69
2022/10/11 07:54:24;;;;;;;7.87;5.50;;;;;;;19.13;46.95;101368.13;5101909;28;20484;-69
2022/10/11 07:56:51;;;;;;;8.60;5.40;;;;;;;18.35;48.27;101362.06;5101119;28;20478;-69
2022/10/11 07:59:19;;;;;;;6.87;5.53;;;;;;;18.88;47.30;101362.69;5101592;28;20440;-69
2022/10/11 08:01:46;;;;;;;8.20;5.33;;;;;;;19.12;47.79;101374.56;5101436;28;21316;-69
2022/10/11 08:04:13;;;;;;;6.30;4.60;;;;;;;18.98;48.54;101370.66;5102652;28;20485;-69
2022/10/11 08:06:40;;;;;;;7.97;5.40;;;;;;;19.77;45.18;101372.81;5100184;28;20505;-68
2022/10/11 08:09:06;;;;;;;7.47;5.70;;;;;;;19.19;46.59;101370.16;5101077;28;20503;-68
2022/10/11 08:11:35;;;;;;;10.60;5.80;;;;;;;19.46;45.89;101376.22;5101458;28;20470;-69
2022/10/11 08:14:03;;;;;;;6.83;4.93;;;;;;;19.04;47.71;101378.09;5100833;28;20458;-68
2022/10/11 08:16:31;;;;;;;6.73;5.13;;;;;;;19.02;47.35;101372.00;5100258;28;20550;-69
2022/10/11 08:18:58;;;;;;;7.43;6.07;;;;;;;17.81;49.49;101369.56;5100887;28;20426;-69
2022/10/11 08:21:25;;;;;;;9.03;6.17;;;;;;;17.36;51.41;101367.91;5099847;28;20534;-69
2022/10/11 08:23:52;;;;;;;9.50;6.77;;;;;;;18.38;48.60;101377.09;5101688;28;20557;-69
2022/10/11 08:26:19;;;;;;;10.70;5.63;;;;;;;18.75;47.19;101375.88;5100818;28;20468;-69
2022/10/11 08:28:46;;;;;;;7.30;5.60;;;;;;;18.12;48.34;101375.31;5100734;28;20468;-69
2022/10/11 08:31:14;;;;;;;7.00;5.70;;;;;;;18.01;48.72;101371.03;5099967;28;20482;-69
2022/10/11 08:33:43;;;;;;;10.67;6.00;;;;;;;17.88;49.64;101381.47;5101188;28;20461;-69
2022/10/11 08:36:10;;;;;;;8.10;5.70;;;;;;;18.19;48.41;101384.50;5099926;28;20479;-69
2022/10/11 08:38:37;;;;;;;8.37;5.47;;;;;;;19.68;45.91;101388.25;5099308;28;20551;-69
2022/10/11 08:41:20;;;;;;;6.80;5.57;;;;;;;20.34;44.10;101393.50;5100897;28;20475;-69
2022/10/11 08:43:55;;;;;;;10.77;6.17;;;;;;;21.26;41.50;101399.03;5099954;28;20465;-69
2022/10/11 08:46:25;;;;;;;8.63;5.77;;;;;;;21.32;40.96;101395.59;5098616;28;20484;-69
2022/10/11 08:48:54;;;;;;;8.03;5.67;;;;;;;20.80;41.79;101399.06;5100490;28;20470;-69
2022/10/11 08:51:25;;;;;;;9.57;5.70;;;;;;;20.78;41.68;101390.19;5100544;28;20482;-69
2022/10/11 08:53:55;;;;;;;8.93;5.40;;;;;;;20.72;41.51;101397.22;5100647;28;20457;-69
2022/10/11 08:56:23;;;;;;;9.70;6.30;;;;;;;18.72;45.64;101403.28;5100405;28;20486;-69
2022/10/11 08:58:54;;;;;;;7.93;5.80;;;;;;;19.78;44.33;101396.22;5100642;28;20437;-69
2022/10/11 09:01:23;;;;;;;7.97;5.10;;;;;;;19.35;45.08;101397.25;5100618;28;20981;-69
2022/10/11 09:03:50;;;;;;;8.27;5.63;;;;;;;19.30;45.42;101405.06;5100674;28;20477;-68
2022/10/11 09:06:27;;;;;;;10.17;6.30;;;;;;;19.35;45.67;101397.25;5099955;28;20473;-68
2022/10/11 09:09:10;;;;;;;9.17;6.00;;;;;;;20.10;44.33;101397.97;5100121;28;20869;-69
2022/10/11 09:11:46;;;;;;;8.10;4.90;;;;;;;19.55;45.54;101395.03;5099394;28;20466;-69
2022/10/11 09:14:28;;;;;;;7.00;5.73;;;;;;;20.32;44.20;101393.66;5100590;28;20462;-69
2022/10/11 09:17:01;;;;;;;7.70;5.13;;;;;;;20.93;41.78;101401.16;5097125;28;20466;-69
2022/10/11 09:19:57;;;;;;;6.97;5.30;;;;;;;21.50;41.30;101391.72;5099683;28;20430;-69
2022/10/11 09:22:31;;;;;;;7.50;5.10;;;;;;;21.74;41.40;101391.47;5095413;28;20473;-69
2022/10/11 09:25:10;;;;;;;7.30;5.40;;;;;;;19.83;44.19;101391.97;5101259;28;20510;-69
2022/10/11 09:27:38;;;;;;;7.50;4.80;;;;;;;21.46;41.11;101399.41;5099901;28;20477;-69
2022/10/11 09:30:09;;;;;;;6.67;4.60;;;;;;;21.66;41.42;101402.44;5101329;28;20432;-69
2022/10/11 09:32:39;;;;;;;7.60;5.30;;;;;;;21.39;41.20;101409.31;5099923;28;20469;-69
2022/10/11 09:35:11;;;;;;;7.67;4.93;;;;;;;19.42;45.11;101397.44;5099546;28;20461;-69
2022/10/11 09:37:44;;;;;;;9.90;6.60;;;;;;;16.84;51.39;101407.34;5099142;28;20487;-69
2022/10/11 09:40:33;;;;;;;8.27;6.13;;;;;;;16.66;52.39;101396.47;5099952;28;20460;-69
2022/10/11 09:43:00;;;;;;;9.77;6.93;;;;;;;18.19;49.76;101399.88;5100248;28;20467;-69
2022/10/11 09:45:26;;;;;;;11.90;7.80;;;;;;;19.23;47.44;101409.47;5098436;28;21504;-69
2022/10/11 09:47:55;;;;;;;7.83;4.80;;;;;;;20.38;43.66;101408.41;5100337;28;20473;-69
2022/10/11 09:50:25;;;;;;;10.40;5.50;;;;;;;19.35;47.03;101401.84;5098478;28;20421;-69
2022/10/11 09:52:54;;;;;;;6.10;4.03;;;;;;;18.90;46.32;101400.47;5099209;28;20455;-69
2022/10/11 09:55:33;;;;;;;6.43;4.33;;;;;;;18.08;49.11;101406.44;5099781;28;20459;-69
2022/10/11 09:58:00;;;;;;;8.90;4.07;;;;;;;19.41;46.35;101397.59;5097842;28;20458;-69
2022/10/11 10:00:31;;;;;;;8.00;4.10;;;;;;;19.79;44.87;101397.91;5099375;28;20472;-70
2022/10/11 10:02:59;;;;;;;10.20;5.50;;;;;;;18.86;48.07;101412.66;5099928;28;20451;-69
2022/10/11 10:05:27;;;;;;;11.80;6.00;;;;;;;19.02;47.04;101407.25;5097186;28;20465;-70
2022/10/11 10:08:01;;;;;;;7.87;5.63;;;;;;;19.41;46.07;101420.16;5099680;28;20489;-69
2022/10/11 10:10:31;;;;;;;9.60;5.80;;;;;;;18.90;46.69;101417.56;5099726;28;20486;-69
2022/10/11 10:13:00;;;;;;;11.77;6.20;;;;;;;18.70;47.14;101411.56;5098575;28;20451;-70
2022/10/11 10:15:29;;;;;;;13.97;7.03;;;;;;;18.52;47.32;101409.00;5099110;28;20473;-69
2022/10/11 10:17:56;;;;;;;11.17;7.50;;;;;;;18.24;49.02;101408.34;5099032;28;20481;-69
2022/10/11 10:20:26;;;;;;;9.97;6.40;;;;;;;18.36;47.78;101417.88;5098781;28;20809;-69
2022/10/11 10:22:53;;;;;;;11.90;7.00;;;;;;;17.85;50.23;101415.06;5099827;28;20453;-69
2022/10/11 10:25:24;;;;;;;11.10;5.90;;;;;;;18.54;49.33;101417.81;5099475;28;20454;-69
2022/10/11 10:27:57;;;;;;;8.63;6.10;;;;;;;18.75;48.28;101411.94;5099310;28;20981;-69
2022/10/11 10:30:24;;;;;;;9.40;6.73;;;;;;;17.25;51.64;101417.66;5099902;28;20489;-69
2022/10/11 10:32:54;;;;;;;10.00;6.30;;;;;;;17.89;50.59;101415.63;5099883;28;20497;-69
2022/10/11 10:35:33;;;;;;;8.57;4.90;;;;;;;16.78;52.14;101410.59;5098570;28;20460;-69
2022/10/11 10:38:13;;;;;;;10.63;5.90;;;;;;;16.86;52.86;101423.38;5098225;28;20451;-69
2022/10/11 10:40:44;;;;;;;7.07;4.93;;;;;;;17.04;52.12;101412.59;5098495;28;20470;-69
2022/10/11 10:43:17;;;;;;;13.30;5.57;;;;;;;17.28;51.75;101420.06;5100020;28;20478;-69
2022/10/11 10:46:12;;;;;;;11.10;7.10;;;;;;;16.70;53.46;101416.78;5097780;28;20970;-68
2022/10/11 10:48:43;;;;;;;9.97;6.23;;;;;;;16.49;54.53;101422.44;5094760;28;20495;-69
2022/10/11 10:51:18;;;;;;;9.40;5.83;;;;;;;16.38;53.80;101420.78;5099507;28;20504;-69
2022/10/11 10:53:48;;;;;;;9.20;6.07;;;;;;;16.80;53.32;101416.69;5098713;28;20446;-68
2022/10/11 10:56:19;;;;;;;10.70;6.87;;;;;;;17.38;52.06;101418.13;5096685;28;20471;-69
2022/10/11 10:59:02;;;;;;;12.70;7.23;;;;;;;16.26;55.42;101421.97;5099602;28;20423;-69
2022/10/11 11:01:32;;;;;;;11.87;6.47;;;;;;;16.11;55.36;101424.34;5098454;28;20494;-69
2022/10/11 11:04:07;;;;;;;13.30;6.63;;;;;;;16.38;55.62;101422.63;5098439;28;20456;-69
2022/10/11 11:06:39;;;;;;;12.13;5.43;;;;;;;16.14;54.87;101423.16;5099062;28;20528;-68
2022/10/11 11:09:15;;;;;;;8.93;5.90;;;;;;;16.79;52.60;101423.13;5098631;28;20930;-68
2022/10/11 11:11:54;;;;;;;9.97;5.93;;;;;;;16.57;55.44;101425.22;5097731;28;20531;-68
2022/10/11 11:14:30;;;;;;;13.67;6.93;;;;;;;17.61;52.01;101415.75;5102803;28;20507;-68
2022/10/11 11:17:02;;;;;;;10.50;6.30;;;;;;;17.92;50.98;101422.59;5101721;28;20470;-70
2022/10/11 11:19:41;;;;;;;11.50;6.40;;;;;;;18.13;49.63;101411.38;5101270;28;20633;-69
2022/10/11 11:22:14;;;;;;;11.50;6.30;;;;;;;19.17;47.52;101412.88;5102553;28;20471;-69
2022/10/11 11:24:47;;;;;;;13.40;6.10;;;;;;;19.47;45.02;101407.78;5102316;28;20454;-69
2022/10/11 11:27:34;;;;;;;8.47;4.13;;;;;;;19.53;44.59;101405.22;5102199;28;20486;-69
2022/10/11 11:30:04;;;;;;;9.10;4.00;;;;;;;19.60;44.33;101409.94;5103483;28;20534;-70
2022/10/11 11:32:38;;;;;;;7.60;4.10;;;;;;;19.61;42.67;101406.22;5100927;28;20465;-70
2022/10/11 11:35:09;;;;;;;15.37;4.37;;;;;;;18.82;44.90;101414.84;5102666;28;20948;-70